sensor_id;sensor_type;location;lat;lon;timestamp;pressure;altitude;pressure_sealevel;temperature;humidity
40073;BME280;25774;52.256;9.356;2023-02-11T00:00:09;101966.44;;;5.85;100.00
40073;BME280;25774;52.256;9.356;2023-02-11T00:02:34;101958.72;;;5.72;100.00
40073;BME280;25774;52.256;9.356;2023-02-11T00:05:00;101976.03;;;5.86;100.00
40073;BME280;25774;52.256;9.356;2023-02-11T00:07:31;101976.97;;;5.81;100.00
40073;BME280;25774;52.256;9.356;2023-02-11T00:09:57;101983.00;;;5.87;100.00
40073;BME280;25774;52.256;9.356;2023-02-11T00:12:24;101983.09;;;5.79;100.00
40073;BME280;25774;52.256;9.356;2023-02-11T00:14:50;101963.94;;;5.72;100.00
40073;BME280;25774;52.256;9.356;2023-02-11T00:17:16;101972.50;;;5.91;100.00
40073;BME280;25774;52.256;9.356;2023-02-11T00:19:41;101951.59;;;5.85;100.00
40073;BME280;25774;52.256;9.356;2023-02-11T00:22:08;101961.28;;;5.78;100.00
40073;BME280;25774;52.256;9.356;2023-02-11T00:24:35;101965.59;;;5.84;100.00
40073;BME280;25774;52.256;9.356;2023-02-11T00:27:01;101979.03;;;5.47;100.00
40073;BME280;25774;52.256;9.356;2023-02-11T00:29:26;102007.59;;;5.75;100.00
40073;BME280;25774;52.256;9.356;2023-02-11T00:31:52;102016.47;;;5.58;100.00
40073;BME280;25774;52.256;9.356;2023-02-11T00:34:18;102021.72;;;5.54;100.00
40073;BME280;25774;52.256;9.356;2023-02-11T00:36:43;102032.19;;;5.58;100.00
40073;BME280;25774;52.256;9.356;2023-02-11T00:39:09;102026.09;;;5.56;100.00
40073;BME280;25774;52.256;9.356;2023-02-11T00:41:34;102007.69;;;5.63;100.00
40073;BME280;25774;52.256;9.356;2023-02-11T00:44:01;102004.97;;;5.73;100.00
40073;BME280;25774;52.256;9.356;2023-02-11T00:46:26;102000.00;;;5.44;100.00
40073;BME280;25774;52.256;9.356;2023-02-11T00:48:52;102009.44;;;5.65;100.00
40073;BME280;25774;52.256;9.356;2023-02-11T00:51:22;102027.72;;;5.70;100.00
40073;BME280;25774;52.256;9.356;2023-02-11T00:53:48;102043.44;;;5.67;100.00
40073;BME280;25774;52.256;9.356;2023-02-11T00:56:13;102043.53;;;5.54;100.00
40073;BME280;25774;52.256;9.356;2023-02-11T00:58:38;102053.22;;;5.46;100.00
40073;BME280;25774;52.256;9.356;2023-02-11T01:01:04;102067.97;;;5.59;100.00
40073;BME280;25774;52.256;9.356;2023-02-11T01:03:29;102065.47;;;5.43;100.00
40073;BME280;25774;52.256;9.356;2023-02-11T01:05:55;102075.03;;;5.47;100.00
40073;BME280;25774;52.256;9.356;2023-02-11T01:08:20;102074.16;;;5.45;100.00
40073;BME280;25774;52.256;9.356;2023-02-11T01:11:09;102089.81;;;5.58;100.00
40073;BME280;25774;52.256;9.356;2023-02-11T01:13:36;102096.84;;;5.50;100.00
40073;BME280;25774;52.256;9.356;2023-02-11T01:16:02;102085.56;;;5.41;100.00
40073;BME280;25774;52.256;9.356;2023-02-11T01:18:29;102103.59;;;5.79;100.00
40073;BME280;25774;52.256;9.356;2023-02-11T01:20:54;102093.31;;;5.51;100.00
40073;BME280;25774;52.256;9.356;2023-02-11T01:23:20;102093.25;;;5.60;100.00
40073;BME280;25774;52.256;9.356;2023-02-11T01:25:46;102094.22;;;5.50;100.00
40073;BME280;25774;52.256;9.356;2023-02-11T01:28:20;102095.06;;;5.55;100.00
40073;BME280;25774;52.256;9.356;2023-02-11T01:30:46;102094.09;;;5.66;100.00
40073;BME280;25774;52.256;9.356;2023-02-11T01:33:11;102088.84;;;5.69;100.00
40073;BME280;25774;52.256;9.356;2023-02-11T01:35:38;102078.34;;;5.70;100.00
40073;BME280;25774;52.256;9.356;2023-02-11T01:38:04;102071.41;;;5.66;100.00
40073;BME280;25774;52.256;9.356;2023-02-11T01:40:30;102079.97;;;5.85;100.00
40073;BME280;25774;52.256;9.356;2023-02-11T01:42:55;102076.44;;;5.89;100.00
40073;BME280;25774;52.256;9.356;2023-02-11T01:48:24;102066.06;;;5.77;100.00
40073;BME280;25774;52.256;9.356;2023-02-11T01:51:14;102059.88;;;5.87;100.00
40073;BME280;25774;52.256;9.356;2023-02-11T01:53:41;102048.63;;;5.73;100.00
40073;BME280;25774;52.256;9.356;2023-02-11T01:56:27;102054.78;;;5.69;100.00
40073;BME280;25774;52.256;9.356;2023-02-11T01:59:30;102053.00;;;5.71;100.00
40073;BME280;25774;52.256;9.356;2023-02-11T02:01:59;102045.91;;;5.85;100.00
40073;BME280;25774;52.256;9.356;2023-02-11T02:04:32;102033.75;;;5.76;100.00
40073;BME280;25774;52.256;9.356;2023-02-11T02:07:07;102033.63;;;5.90;100.00
40073;BME280;25774;52.256;9.356;2023-02-11T02:09:36;102018.88;;;5.80;100.00
40073;BME280;25774;52.256;9.356;2023-02-11T02:12:03;102025.75;;;5.92;100.00
40073;BME280;25774;52.256;9.356;2023-02-11T02:14:29;102019.72;;;5.85;100.00
40073;BME280;25774;52.256;9.356;2023-02-11T02:16:54;102014.53;;;5.77;100.00
40073;BME280;25774;52.256;9.356;2023-02-11T02:25:04;102021.41;;;5.91;100.00
40073;BME280;25774;52.256;9.356;2023-02-11T02:38:46;102031.84;;;5.98;100.00
40073;BME280;25774;52.256;9.356;2023-02-11T02:41:19;102031.00;;;5.90;100.00
40073;BME280;25774;52.256;9.356;2023-02-11T02:43:50;102020.63;;;5.81;100.00
40073;BME280;25774;52.256;9.356;2023-02-11T02:46:22;102024.94;;;5.83;100.00
40073;BME280;25774;52.256;9.356;2023-02-11T02:48:49;102023.13;;;5.93;100.00
40073;BME280;25774;52.256;9.356;2023-02-11T02:51:45;102024.03;;;5.94;100.00
40073;BME280;25774;52.256;9.356;2023-02-11T02:54:38;102014.19;;;6.14;100.00
40073;BME280;25774;52.256;9.356;2023-02-11T02:57:28;102009.03;;;6.10;100.00
40073;BME280;25774;52.256;9.356;2023-02-11T03:02:48;102019.75;;;5.79;100.00
40073;BME280;25774;52.256;9.356;2023-02-11T03:05:29;102027.50;;;5.96;100.00
40073;BME280;25774;52.256;9.356;2023-02-11T03:08:02;102019.88;;;5.68;100.00
40073;BME280;25774;52.256;9.356;2023-02-11T03:10:35;102031.00;;;5.95;100.00
40073;BME280;25774;52.256;9.356;2023-02-11T03:13:03;102031.91;;;5.86;100.00
40073;BME280;25774;52.256;9.356;2023-02-11T03:15:33;102012.75;;;5.84;100.00
40073;BME280;25774;52.256;9.356;2023-02-11T03:18:02;102011.00;;;5.83;100.00
40073;BME280;25774;52.256;9.356;2023-02-11T03:20:32;102020.41;;;6.07;100.00
40073;BME280;25774;52.256;9.356;2023-02-11T03:23:09;102016.16;;;5.95;100.00
40073;BME280;25774;52.256;9.356;2023-02-11T03:25:37;102019.56;;;6.02;100.00
40073;BME280;25774;52.256;9.356;2023-02-11T03:28:22;102000.44;;;5.89;100.00
40073;BME280;25774;52.256;9.356;2023-02-11T03:31:12;102002.16;;;5.96;100.00
40073;BME280;25774;52.256;9.356;2023-02-11T03:34:22;101994.41;;;5.84;100.00
40073;BME280;25774;52.256;9.356;2023-02-11T03:36:47;101998.69;;;5.90;100.00
40073;BME280;25774;52.256;9.356;2023-02-11T03:39:26;101994.31;;;5.93;100.00
40073;BME280;25774;52.256;9.356;2023-02-11T03:41:54;101992.69;;;5.80;100.00
40073;BME280;25774;52.256;9.356;2023-02-11T03:44:21;102014.34;;;6.00;100.00
40073;BME280;25774;52.256;9.356;2023-02-11T03:46:51;102007.41;;;5.90;100.00
40073;BME280;25774;52.256;9.356;2023-02-11T03:49:19;102018.03;;;5.78;100.00
40073;BME280;25774;52.256;9.356;2023-02-11T03:51:47;102026.75;;;5.77;100.00
40073;BME280;25774;52.256;9.356;2023-02-11T03:54:15;102024.81;;;6.02;100.00
40073;BME280;25774;52.256;9.356;2023-02-11T03:56:48;102026.50;;;6.06;100.00
40073;BME280;25774;52.256;9.356;2023-02-11T03:59:15;102016.19;;;5.94;100.00
40073;BME280;25774;52.256;9.356;2023-02-11T04:01:40;102021.38;;;5.92;100.00
40073;BME280;25774;52.256;9.356;2023-02-11T04:04:06;102021.47;;;5.83;100.00
40073;BME280;25774;52.256;9.356;2023-02-11T04:06:31;102024.94;;;5.85;100.00
40073;BME280;25774;52.256;9.356;2023-02-11T04:08:56;102020.66;;;5.78;100.00
40073;BME280;25774;52.256;9.356;2023-02-11T04:11:21;102024.19;;;5.72;100.00
40073;BME280;25774;52.256;9.356;2023-02-11T04:13:47;102037.19;;;5.83;100.00
40073;BME280;25774;52.256;9.356;2023-02-11T04:16:13;102047.59;;;5.92;100.00
40073;BME280;25774;52.256;9.356;2023-02-11T04:18:38;102051.25;;;5.73;100.00
40073;BME280;25774;52.256;9.356;2023-02-11T04:21:04;102054.75;;;5.73;100.00
40073;BME280;25774;52.256;9.356;2023-02-11T04:23:29;102061.84;;;5.62;100.00
40073;BME280;25774;52.256;9.356;2023-02-11T04:25:54;102072.22;;;5.73;100.00
40073;BME280;25774;52.256;9.356;2023-02-11T04:28:21;102090.41;;;5.94;100.00
40073;BME280;25774;52.256;9.356;2023-02-11T04:30:47;102083.41;;;5.92;100.00
40073;BME280;25774;52.256;9.356;2023-02-11T04:33:13;102079.09;;;5.85;100.00
40073;BME280;25774;52.256;9.356;2023-02-11T04:35:38;102072.19;;;5.76;100.00
40073;BME280;25774;52.256;9.356;2023-02-11T04:38:04;102074.00;;;5.69;100.00
40073;BME280;25774;52.256;9.356;2023-02-11T04:40:30;102080.03;;;5.79;100.00
40073;BME280;25774;52.256;9.356;2023-02-11T04:42:56;102083.47;;;5.84;100.00
40073;BME280;25774;52.256;9.356;2023-02-11T04:45:21;102085.03;;;6.08;100.00
40073;BME280;25774;52.256;9.356;2023-02-11T04:47:47;102074.72;;;5.85;100.00
40073;BME280;25774;52.256;9.356;2023-02-11T04:50:12;102082.56;;;5.88;100.00
40073;BME280;25774;52.256;9.356;2023-02-11T04:52:37;102086.94;;;5.88;100.00
40073;BME280;25774;52.256;9.356;2023-02-11T04:55:03;102080.03;;;5.79;100.00
40073;BME280;25774;52.256;9.356;2023-02-11T04:57:28;102083.47;;;5.82;100.00
40073;BME280;25774;52.256;9.356;2023-02-11T04:59:53;102094.00;;;5.76;100.00
40073;BME280;25774;52.256;9.356;2023-02-11T05:02:19;102105.06;;;6.12;100.00
40073;BME280;25774;52.256;9.356;2023-02-11T05:04:44;102086.94;;;5.88;100.00
40073;BME280;25774;52.256;9.356;2023-02-11T05:07:10;102080.72;;;5.99;100.00
40073;BME280;25774;52.256;9.356;2023-02-11T05:09:36;102087.50;;;6.22;100.00
40073;BME280;25774;52.256;9.356;2023-02-11T05:12:01;102060.66;;;5.98;100.00
40073;BME280;25774;52.256;9.356;2023-02-11T05:14:27;102062.41;;;5.96;100.00
40073;BME280;25774;52.256;9.356;2023-02-11T05:16:52;102057.19;;;5.93;100.00
40073;BME280;25774;52.256;9.356;2023-02-11T05:19:17;102059.66;;;6.12;100.00
40073;BME280;25774;52.256;9.356;2023-02-11T05:21:43;102043.31;;;5.82;100.00
40073;BME280;25774;52.256;9.356;2023-02-11T05:24:08;102073.66;;;6.11;100.00
40073;BME280;25774;52.256;9.356;2023-02-11T05:26:33;102061.59;;;5.94;100.00
40073;BME280;25774;52.256;9.356;2023-02-11T05:28:59;102058.94;;;5.96;100.00
40073;BME280;25774;52.256;9.356;2023-02-11T05:31:24;102069.41;;;5.97;100.00
40073;BME280;25774;52.256;9.356;2023-02-11T05:33:50;102063.34;;;5.91;100.00
40073;BME280;25774;52.256;9.356;2023-02-11T05:36:15;102071.81;;;6.20;100.00
40073;BME280;25774;52.256;9.356;2023-02-11T05:38:41;102051.91;;;5.99;100.00
40073;BME280;25774;52.256;9.356;2023-02-11T05:41:08;102058.94;;;5.96;100.00
40073;BME280;25774;52.256;9.356;2023-02-11T05:43:34;102053.66;;;6.00;100.00
40073;BME280;25774;52.256;9.356;2023-02-11T05:45:59;102060.47;;;6.17;100.00
40073;BME280;25774;52.256;9.356;2023-02-11T05:48:25;102051.09;;;5.93;100.00
40073;BME280;25774;52.256;9.356;2023-02-11T05:50:50;102059.84;;;5.89;100.00
40073;BME280;25774;52.256;9.356;2023-02-11T05:53:16;102057.19;;;5.92;100.00
40073;BME280;25774;52.256;9.356;2023-02-11T05:55:41;102062.44;;;5.93;100.00
40073;BME280;25774;52.256;9.356;2023-02-11T05:58:08;102065.75;;;6.14;100.00
40073;BME280;25774;52.256;9.356;2023-02-11T06:00:34;102052.84;;;5.89;100.00
40073;BME280;25774;52.256;9.356;2023-02-11T06:02:59;102049.13;;;6.15;100.00
40073;BME280;25774;52.256;9.356;2023-02-11T06:05:25;102034.41;;;6.04;100.00
40073;BME280;25774;52.256;9.356;2023-02-11T06:07:50;102037.97;;;5.96;100.00
40073;BME280;25774;52.256;9.356;2023-02-11T06:10:16;102033.47;;;6.09;100.00
40073;BME280;25774;52.256;9.356;2023-02-11T06:12:41;102033.56;;;5.99;100.00
40073;BME280;25774;52.256;9.356;2023-02-11T06:15:07;102031.78;;;6.03;100.00
40073;BME280;25774;52.256;9.356;2023-02-11T06:17:32;102033.47;;;6.09;100.00
40073;BME280;25774;52.256;9.356;2023-02-11T06:19:59;102025.63;;;6.05;100.00
40073;BME280;25774;52.256;9.356;2023-02-11T06:22:26;102031.69;;;6.14;100.00
40073;BME280;25774;52.256;9.356;2023-02-11T06:24:51;102029.09;;;6.11;100.00
40073;BME280;25774;52.256;9.356;2023-02-11T06:27:17;102035.31;;;6.00;100.00
40073;BME280;25774;52.256;9.356;2023-02-11T06:29:44;102030.91;;;6.04;100.00
40073;BME280;25774;52.256;9.356;2023-02-11T06:32:10;102035.13;;;6.16;100.00
40073;BME280;25774;52.256;9.356;2023-02-11T06:34:35;102030.13;;;5.91;100.00
40073;BME280;25774;52.256;9.356;2023-02-11T06:37:00;102027.44;;;6.03;100.00
40073;BME280;25774;52.256;9.356;2023-02-11T06:39:26;102034.31;;;6.14;100.00
40073;BME280;25774;52.256;9.356;2023-02-11T06:41:51;102022.13;;;6.10;100.00
40073;BME280;25774;52.256;9.356;2023-02-11T06:44:16;102025.69;;;5.99;100.00
40073;BME280;25774;52.256;9.356;2023-02-11T06:46:42;102027.41;;;6.05;100.00
40073;BME280;25774;52.256;9.356;2023-02-11T06:49:07;102036.81;;;6.21;100.00
40073;BME280;25774;52.256;9.356;2023-02-11T06:51:33;102033.47;;;6.09;100.00
40073;BME280;25774;52.256;9.356;2023-02-11T06:53:59;102031.63;;;6.20;100.00
40073;BME280;25774;52.256;9.356;2023-02-11T06:56:24;102028.31;;;6.01;100.00
40073;BME280;25774;52.256;9.356;2023-02-11T06:58:53;102029.16;;;6.04;100.00
40073;BME280;25774;52.256;9.356;2023-02-11T07:01:19;102035.00;;;6.28;100.00
40073;BME280;25774;52.256;9.356;2023-02-11T07:03:45;102030.78;;;6.15;100.00
40073;BME280;25774;52.256;9.356;2023-02-11T07:06:16;102037.56;;;6.34;100.00
40073;BME280;25774;52.256;9.356;2023-02-11T07:08:42;102030.69;;;6.25;100.00
40073;BME280;25774;52.256;9.356;2023-02-11T07:11:15;102029.91;;;6.14;100.00
40073;BME280;25774;52.256;9.356;2023-02-11T07:13:41;102035.09;;;6.19;100.00
40073;BME280;25774;52.256;9.356;2023-02-11T07:16:13;102046.44;;;6.21;100.00
40073;BME280;25774;52.256;9.356;2023-02-11T07:18:39;102045.59;;;6.19;100.00
40073;BME280;25774;52.256;9.356;2023-02-11T07:21:06;102046.25;;;6.39;100.00
40073;BME280;25774;52.256;9.356;2023-02-11T07:23:32;102043.88;;;6.15;100.00
40073;BME280;25774;52.256;9.356;2023-02-11T07:26:04;102037.56;;;6.34;100.00
40073;BME280;25774;52.256;9.356;2023-02-11T07:28:30;102025.50;;;6.19;100.00
40073;BME280;25774;52.256;9.356;2023-02-11T07:30:55;102032.53;;;6.14;100.00
40073;BME280;25774;52.256;9.356;2023-02-11T07:33:22;102040.34;;;6.20;100.00
40073;BME280;25774;52.256;9.356;2023-02-11T07:35:48;102044.47;;;6.43;100.00
40073;BME280;25774;52.256;9.356;2023-02-11T07:38:13;102043.81;;;6.21;100.00
40073;BME280;25774;52.256;9.356;2023-02-11T07:40:38;102039.38;;;6.27;100.00
40073;BME280;25774;52.256;9.356;2023-02-11T07:43:04;102040.31;;;6.22;100.00
40073;BME280;25774;52.256;9.356;2023-02-11T07:45:29;102028.09;;;6.22;100.00
40073;BME280;25774;52.256;9.356;2023-02-11T07:47:55;102034.16;;;6.24;100.00
40073;BME280;25774;52.256;9.356;2023-02-11T07:50:21;102044.56;;;6.35;100.00
40073;BME280;25774;52.256;9.356;2023-02-11T07:52:46;102050.53;;;6.48;100.00
40073;BME280;25774;52.256;9.356;2023-02-11T07:55:12;102038.41;;;6.36;100.00
40073;BME280;25774;52.256;9.356;2023-02-11T07:57:38;102042.81;;;6.36;100.00
40073;BME280;25774;52.256;9.356;2023-02-11T08:00:04;102052.31;;;6.41;100.00
40073;BME280;25774;52.256;9.356;2023-02-11T08:02:29;102049.81;;;6.35;100.00
40073;BME280;25774;52.256;9.356;2023-02-11T08:04:55;102060.28;;;6.35;100.00
40073;BME280;25774;52.256;9.356;2023-02-11T08:07:20;102065.34;;;6.50;100.00
40073;BME280;25774;52.256;9.356;2023-02-11T08:09:46;102059.47;;;6.28;100.00
40073;BME280;25774;52.256;9.356;2023-02-11T08:12:11;102068.16;;;6.34;100.00
40073;BME280;25774;52.256;9.356;2023-02-11T08:14:37;102069.81;;;6.42;100.00
40073;BME280;25774;52.256;9.356;2023-02-11T08:17:03;102068.00;;;6.47;100.00
40073;BME280;25774;52.256;9.356;2023-02-11T08:19:28;102071.44;;;6.52;100.00
40073;BME280;25774;52.256;9.356;2023-02-11T08:21:55;102063.78;;;6.34;100.00
40073;BME280;25774;52.256;9.356;2023-02-11T08:24:21;102052.31;;;6.41;100.00
40073;BME280;25774;52.256;9.356;2023-02-11T08:26:46;102052.34;;;6.40;100.00
40073;BME280;25774;52.256;9.356;2023-02-11T08:29:13;102070.50;;;6.58;100.00
40073;BME280;25774;52.256;9.356;2023-02-11T08:31:41;102069.66;;;6.58;100.00
40073;BME280;25774;52.256;9.356;2023-02-11T08:34:07;102075.44;;;6.83;100.00
40073;BME280;25774;52.256;9.356;2023-02-11T08:36:35;102072.25;;;6.61;100.00
40073;BME280;25774;52.256;9.356;2023-02-11T08:39:05;102068.91;;;6.45;100.00
40073;BME280;25774;52.256;9.356;2023-02-11T08:41:32;102065.41;;;6.44;100.00
40073;BME280;25774;52.256;9.356;2023-02-11T08:43:58;102085.09;;;6.79;100.00
40073;BME280;25774;52.256;9.356;2023-02-11T08:46:23;102076.66;;;6.56;100.00
40073;BME280;25774;52.256;9.356;2023-02-11T08:48:49;102087.94;;;6.64;100.00
40073;BME280;25774;52.256;9.356;2023-02-11T08:51:26;102093.88;;;6.78;100.00
40073;BME280;25774;52.256;9.356;2023-02-11T08:53:51;102084.19;;;6.82;100.00
40073;BME280;25774;52.256;9.356;2023-02-11T08:56:19;102076.59;;;6.60;100.00
40073;BME280;25774;52.256;9.356;2023-02-11T08:58:45;102074.72;;;6.70;100.00
40073;BME280;25774;52.256;9.356;2023-02-11T09:01:17;102087.69;;;6.84;100.00
40073;BME280;25774;52.256;9.356;2023-02-11T09:03:44;102076.38;;;6.80;100.00
40073;BME280;25774;52.256;9.356;2023-02-11T09:06:10;102074.66;;;6.76;100.00
40073;BME280;25774;52.256;9.356;2023-02-11T09:08:38;102074.50;;;6.88;100.00
40073;BME280;25774;52.256;9.356;2023-02-11T09:11:04;102072.19;;;6.62;100.00
40073;BME280;25774;52.256;9.356;2023-02-11T09:13:30;102075.34;;;6.89;100.00
40073;BME280;25774;52.256;9.356;2023-02-11T09:15:57;102071.06;;;6.82;100.00
40073;BME280;25774;52.256;9.356;2023-02-11T09:18:23;102073.59;;;6.91;100.00
40073;BME280;25774;52.256;9.356;2023-02-11T09:20:49;102079.94;;;6.73;100.00
40073;BME280;25774;52.256;9.356;2023-02-11T09:23:14;102087.34;;;7.08;100.00
40073;BME280;25774;52.256;9.356;2023-02-11T09:25:40;102084.59;;;7.19;100.00
40073;BME280;25774;52.256;9.356;2023-02-11T09:28:06;102082.41;;;6.85;100.00
40073;BME280;25774;52.256;9.356;2023-02-11T09:30:32;102086.59;;;7.00;100.00
40073;BME280;25774;52.256;9.356;2023-02-11T09:32:58;102084.13;;;6.89;100.00
40073;BME280;25774;52.256;9.356;2023-02-11T09:35:24;102094.44;;;7.02;100.00
40073;BME280;25774;52.256;9.356;2023-02-11T09:37:49;102085.28;;;7.30;100.00
40073;BME280;25774;52.256;9.356;2023-02-11T09:40:15;102090.66;;;7.22;100.00
40073;BME280;25774;52.256;9.356;2023-02-11T09:45:28;102089.78;;;7.20;100.00
40073;BME280;25774;52.256;9.356;2023-02-11T09:48:37;102084.91;;;6.94;100.00
40073;BME280;25774;52.256;9.356;2023-02-11T09:51:04;102100.28;;;7.22;100.00
40073;BME280;25774;52.256;9.356;2023-02-11T09:53:35;102107.38;;;7.15;100.00
40073;BME280;25774;52.256;9.356;2023-02-11T09:56:11;102090.97;;;6.99;100.00
40073;BME280;25774;52.256;9.356;2023-02-11T09:58:41;102118.38;;;7.42;100.00
40073;BME280;25774;52.256;9.356;2023-02-11T10:01:58;102121.88;;;7.42;100.00
40073;BME280;25774;52.256;9.356;2023-02-11T10:04:52;102115.88;;;7.34;100.00
40073;BME280;25774;52.256;9.356;2023-02-11T10:07:47;102120.97;;;7.45;100.00
40073;BME280;25774;52.256;9.356;2023-02-11T10:13:17;102138.69;;;7.29;100.00
40073;BME280;25774;52.256;9.356;2023-02-11T10:18:39;102159.41;;;7.51;100.00
40073;BME280;25774;52.256;9.356;2023-02-11T10:24:02;102147.31;;;7.39;100.00
40073;BME280;25774;52.256;9.356;2023-02-11T10:26:30;102160.94;;;7.67;100.00
40073;BME280;25774;52.256;9.356;2023-02-11T10:29:00;102136.16;;;7.25;100.00
40073;BME280;25774;52.256;9.356;2023-02-11T10:31:38;102156.41;;;7.77;100.00
40073;BME280;25774;52.256;9.356;2023-02-11T10:34:10;102129.13;;;7.23;100.00
40073;BME280;25774;52.256;9.356;2023-02-11T10:36:39;102159.03;;;7.77;100.00
40073;BME280;25774;52.256;9.356;2023-02-11T10:39:15;102154.91;;;8.13;100.00
40073;BME280;25774;52.256;9.356;2023-02-11T10:42:08;102162.22;;;7.96;100.00
40073;BME280;25774;52.256;9.356;2023-02-11T10:44:41;102149.13;;;7.92;100.00
40073;BME280;25774;52.256;9.356;2023-02-11T10:47:19;102144.75;;;7.95;100.00
40073;BME280;25774;52.256;9.356;2023-02-11T10:49:46;102141.31;;;7.89;100.00
40073;BME280;25774;52.256;9.356;2023-02-11T10:52:23;102130.78;;;7.88;100.00
40073;BME280;25774;52.256;9.356;2023-02-11T10:55:19;102137.88;;;7.84;100.00
40073;BME280;25774;52.256;9.356;2023-02-11T10:57:58;102139.19;;;8.10;100.00
40073;BME280;25774;52.256;9.356;2023-02-11T11:00:40;102118.88;;;7.67;100.00
40073;BME280;25774;52.256;9.356;2023-02-11T11:03:16;102131.16;;;7.66;100.00
40073;BME280;25774;52.256;9.356;2023-02-11T11:05:48;102139.38;;;7.99;100.00
40073;BME280;25774;52.256;9.356;2023-02-11T11:08:15;102123.47;;;7.54;100.00
40073;BME280;25774;52.256;9.356;2023-02-11T11:10:46;102131.63;;;7.91;100.00
40073;BME280;25774;52.256;9.356;2023-02-11T11:13:33;102126.38;;;7.90;100.00
40073;BME280;25774;52.256;9.356;2023-02-11T11:18:40;102129.72;;;7.45;100.00
40073;BME280;25774;52.256;9.356;2023-02-11T11:24:00;102140.00;;;7.61;100.00
40073;BME280;25774;52.256;9.356;2023-02-11T11:26:49;102152.28;;;7.59;100.00
40073;BME280;25774;52.256;9.356;2023-02-11T11:31:50;102153.06;;;7.65;100.00
40073;BME280;25774;52.256;9.356;2023-02-11T11:34:22;102157.50;;;7.62;100.00
40073;BME280;25774;52.256;9.356;2023-02-11T11:36:50;102151.53;;;7.51;100.00
40073;BME280;25774;52.256;9.356;2023-02-11T11:39:25;102173.91;;;7.78;100.00
40073;BME280;25774;52.256;9.356;2023-02-11T11:42:19;102170.34;;;7.80;100.00
40073;BME280;25774;52.256;9.356;2023-02-11T11:45:01;102162.06;;;7.51;100.00
40073;BME280;25774;52.256;9.356;2023-02-11T11:47:47;102181.69;;;7.85;100.00
40073;BME280;25774;52.256;9.356;2023-02-11T11:55:58;102170.84;;;8.04;100.00
40073;BME280;25774;52.256;9.356;2023-02-11T11:58:27;102166.78;;;7.84;100.00
40073;BME280;25774;52.256;9.356;2023-02-11T12:01:01;102160.25;;;7.53;100.00
40073;BME280;25774;52.256;9.356;2023-02-11T12:03:47;102177.50;;;7.71;100.00
40073;BME280;25774;52.256;9.356;2023-02-11T12:07:01;102181.88;;;7.73;100.00
40073;BME280;25774;52.256;9.356;2023-02-11T12:12:16;102188.53;;;7.94;100.00
40073;BME280;25774;52.256;9.356;2023-02-11T12:15:00;102175.78;;;7.68;100.00
40073;BME280;25774;52.256;9.356;2023-02-11T12:26:17;102181.00;;;7.73;100.00
40073;BME280;25774;52.256;9.356;2023-02-11T12:34:22;102177.38;;;7.78;100.00
40073;BME280;25774;52.256;9.356;2023-02-11T12:37:01;102173.34;;;7.56;100.00
40073;BME280;25774;52.256;9.356;2023-02-11T12:42:42;102184.66;;;7.59;100.00
40073;BME280;25774;52.256;9.356;2023-02-11T12:59:42;102181.72;;;7.81;100.00
40073;BME280;25774;52.256;9.356;2023-02-11T13:05:04;102171.47;;;7.64;100.00
40073;BME280;25774;52.256;9.356;2023-02-11T13:07:38;102180.81;;;7.85;100.00
40073;BME280;25774;52.256;9.356;2023-02-11T13:10:32;102188.34;;;8.08;100.00
40073;BME280;25774;52.256;9.356;2023-02-11T13:12:59;102171.44;;;7.67;100.00
40073;BME280;25774;52.256;9.356;2023-02-11T13:16:18;102195.47;;;8.00;100.00
40073;BME280;25774;52.256;9.356;2023-02-11T13:21:40;102181.72;;;7.82;100.00
40073;BME280;25774;52.256;9.356;2023-02-11T13:32:14;102192.88;;;7.97;100.00
40073;BME280;25774;52.256;9.356;2023-02-11T13:37:17;102201.94;;;7.77;100.00
40073;BME280;25774;52.256;9.356;2023-02-11T13:39:55;102200.22;;;7.76;100.00
40073;BME280;25774;52.256;9.356;2023-02-11T13:42:20;102217.41;;;7.99;100.00
40073;BME280;25774;52.256;9.356;2023-02-11T13:44:45;102218.00;;;8.16;100.00
40073;BME280;25774;52.256;9.356;2023-02-11T13:47:31;102199.75;;;8.05;100.00
40073;BME280;25774;52.256;9.356;2023-02-11T13:49:59;102186.81;;;7.95;100.00
40073;BME280;25774;52.256;9.356;2023-02-11T13:52:28;102193.88;;;7.88;100.00
40073;BME280;25774;52.256;9.356;2023-02-11T13:55:41;102200.22;;;7.76;100.00
40073;BME280;25774;52.256;9.356;2023-02-11T14:06:15;102231.63;;;7.84;100.00
40073;BME280;25774;52.256;9.356;2023-02-11T14:14:28;102242.22;;;7.79;100.00
40073;BME280;25774;52.256;9.356;2023-02-11T14:19:39;102259.59;;;7.89;100.00
40073;BME280;25774;52.256;9.356;2023-02-11T14:22:16;102258.59;;;7.97;100.00
40073;BME280;25774;52.256;9.356;2023-02-11T14:27:50;102269.38;;;7.80;100.00
40073;BME280;25774;52.256;9.356;2023-02-11T14:30:17;102280.34;;;8.09;100.00
40073;BME280;25774;52.256;9.356;2023-02-11T14:38:41;102285.81;;;7.94;100.00
40073;BME280;25774;52.256;9.356;2023-02-11T14:41:25;102277.81;;;8.02;100.00
40073;BME280;25774;52.256;9.356;2023-02-11T14:44:03;102283.16;;;7.96;100.00
40073;BME280;25774;52.256;9.356;2023-02-11T14:46:31;102280.78;;;7.79;100.00
40073;BME280;25774;52.256;9.356;2023-02-11T14:49:00;102291.03;;;7.97;100.00
40073;BME280;25774;52.256;9.356;2023-02-11T14:51:30;102297.22;;;7.93;100.00
40073;BME280;25774;52.256;9.356;2023-02-11T14:54:08;102295.28;;;8.06;100.00
40073;BME280;25774;52.256;9.356;2023-02-11T14:56:38;102297.25;;;7.91;100.00
40073;BME280;25774;52.256;9.356;2023-02-11T14:59:15;102290.41;;;7.78;100.00
40073;BME280;25774;52.256;9.356;2023-02-11T15:01:41;102301.56;;;7.96;100.00
40073;BME280;25774;52.256;9.356;2023-02-11T15:04:30;102310.19;;;8.05;100.00
40073;BME280;25774;52.256;9.356;2023-02-11T15:06:57;102316.28;;;8.09;100.00
40073;BME280;25774;52.256;9.356;2023-02-11T15:09:33;102318.09;;;8.04;100.00